Time;durP1;ratioP1;P1;durP2;ratioP2;P2;SDS_P1;SDS_P2;PMS_P1;PMS_P2;Temp;Humidity;BMP_temperature;BMP_pressure;BME280_temperature;BME280_humidity;BME280_pressure;Samples;Min_cycle;Max_cycle;Signal;HPM_P1;HPM_P2
2024/01/17 00:01:49;;;;;;;21.67;8.35;;;-2.40;99.90;;;;;;5057056;28;20040;-65
2024/01/17 00:04:15;;;;;;;15.65;6.65;;;-2.50;99.90;;;;;;5056966;28;20021;-65
2024/01/17 00:06:41;;;;;;;18.80;8.65;;;-2.50;99.90;;;;;;5055710;28;20021;-65
2024/01/17 00:09:07;;;;;;;26.00;8.75;;;-2.40;99.90;;;;;;5056132;28;20028;-65
2024/01/17 00:11:33;;;;;;;20.73;8.07;;;-2.40;99.90;;;;;;5056752;28;20052;-65
2024/01/17 00:13:58;;;;;;;17.48;6.43;;;-2.40;99.90;;;;;;5056819;28;20048;-65
2024/01/17 00:16:24;;;;;;;10.57;5.72;;;-2.40;99.90;;;;;;5057036;28;20025;-65
2024/01/17 00:18:51;;;;;;;20.30;6.38;;;-2.50;99.90;;;;;;5057342;28;20025;-65
2024/01/17 00:21:18;;;;;;;12.20;6.68;;;-2.60;99.90;;;;;;5056721;28;20033;-65
2024/01/17 00:23:43;;;;;;;18.45;7.20;;;-2.60;99.90;;;;;;5056538;28;20029;-65
2024/01/17 00:26:09;;;;;;;16.48;7.25;;;-2.70;99.90;;;;;;5056770;28;20017;-65
2024/01/17 00:28:34;;;;;;;15.38;6.40;;;-2.80;99.90;;;;;;5056846;28;20052;-65
2024/01/17 00:31:00;;;;;;;19.38;6.53;;;-2.80;99.90;;;;;;5055680;28;20021;-65
2024/01/17 00:33:25;;;;;;;16.50;6.65;;;-2.80;99.90;;;;;;5056023;28;20021;-65
2024/01/17 00:35:51;;;;;;;18.30;7.40;;;-2.80;99.90;;;;;;5056086;28;20021;-65
2024/01/17 00:38:16;;;;;;;25.63;7.38;;;-2.90;99.90;;;;;;5055634;28;20032;-65
2024/01/17 00:40:42;;;;;;;19.67;6.18;;;-2.90;99.90;;;;;;5056422;28;20041;-65
2024/01/17 00:43:07;;;;;;;17.75;6.95;;;-2.80;99.90;;;;;;5055549;28;20025;-65
2024/01/17 00:45:33;;;;;;;21.10;7.05;;;-2.80;99.90;;;;;;5057011;28;20028;-65
2024/01/17 00:47:58;;;;;;;16.65;7.22;;;-2.80;99.90;;;;;;5055646;28;20017;-65
2024/01/17 00:50:24;;;;;;;30.73;8.48;;;-2.80;99.90;;;;;;5055467;28;20025;-65
2024/01/17 00:52:49;;;;;;;16.92;6.90;;;-2.70;99.90;;;;;;5055539;28;20024;-65
2024/01/17 00:55:15;;;;;;;22.88;6.80;;;-2.70;99.90;;;;;;5055485;28;20032;-65
2024/01/17 00:57:41;;;;;;;17.83;6.47;;;-2.70;99.90;;;;;;5056659;28;20048;-65
2024/01/17 01:00:08;;;;;;;14.18;6.30;;;-2.70;99.90;;;;;;5056425;28;20059;-65
2024/01/17 01:02:33;;;;;;;16.40;5.97;;;-2.70;99.90;;;;;;5056266;28;20092;-65
2024/01/17 01:04:59;;;;;;;15.68;6.20;;;-2.70;99.90;;;;;;5055480;28;20056;-65
2024/01/17 01:07:24;;;;;;;21.75;7.05;;;-2.70;99.90;;;;;;5055549;28;20031;-65
2024/01/17 01:09:50;;;;;;;14.45;5.53;;;-2.80;99.90;;;;;;5055733;28;20025;-65
2024/01/17 01:12:16;;;;;;;13.43;6.18;;;-2.90;99.90;;;;;;5056457;28;20071;-65
2024/01/17 01:14:41;;;;;;;27.73;6.43;;;-2.90;99.90;;;;;;5056275;28;20100;-65
2024/01/17 01:17:07;;;;;;;19.30;5.93;;;-3.00;99.90;;;;;;5055564;28;20123;-65
2024/01/17 01:19:32;;;;;;;17.92;6.20;;;-3.10;99.90;;;;;;5059888;28;20043;-67
2024/01/17 01:21:58;;;;;;;16.67;5.57;;;-3.20;99.90;;;;;;5059135;28;20028;-67
2024/01/17 01:24:23;;;;;;;15.60;6.07;;;-3.20;99.90;;;;;;5060103;28;20028;-67
2024/01/17 01:26:49;;;;;;;18.65;5.80;;;-3.10;99.90;;;;;;5058770;28;20033;-67
2024/01/17 01:29:15;;;;;;;16.85;6.50;;;-3.20;99.90;;;;;;5059633;28;20032;-67
2024/01/17 01:31:40;;;;;;;16.23;5.97;;;-3.10;99.90;;;;;;5059889;28;20035;-67
2024/01/17 01:34:06;;;;;;;17.48;6.82;;;-3.10;99.90;;;;;;5059218;28;20017;-67
2024/01/17 01:36:31;;;;;;;16.67;5.22;;;-3.00;99.90;;;;;;5058974;28;20079;-67
2024/01/17 01:38:57;;;;;;;12.07;5.07;;;-3.00;99.90;;;;;;5059319;28;20032;-68
2024/01/17 01:41:22;;;;;;;17.02;5.18;;;-2.90;99.90;;;;;;5058236;28;20033;-67
2024/01/17 01:43:48;;;;;;;18.67;5.75;;;-2.90;99.90;;;;;;5059085;28;20021;-67
2024/01/17 01:46:20;;;;;;;17.30;6.13;;;-2.80;99.90;;;;;;5058392;28;20120;-67
2024/01/17 01:48:48;;;;;;;15.02;6.25;;;-2.80;99.90;;;;;;5058511;28;20055;-67
2024/01/17 01:51:15;;;;;;;13.60;5.45;;;-2.70;99.90;;;;;;5058290;28;20076;-67
2024/01/17 01:53:42;;;;;;;22.15;5.25;;;-2.80;99.90;;;;;;5059150;28;20021;-67
2024/01/17 01:56:10;;;;;;;13.85;5.75;;;-2.80;99.90;;;;;;5058125;28;20025;-67
2024/01/17 01:58:36;;;;;;;15.65;5.15;;;-2.70;99.90;;;;;;5058473;28;20120;-67
2024/01/17 02:01:04;;;;;;;19.52;5.72;;;-2.70;99.90;;;;;;5058910;28;20025;-65
2024/01/17 02:03:30;;;;;;;13.90;5.28;;;-2.70;99.90;;;;;;5059151;28;20112;-65
2024/01/17 02:05:56;;;;;;;17.38;6.53;;;-2.90;99.90;;;;;;5058055;28;20048;-65
2024/01/17 02:08:21;;;;;;;20.33;5.88;;;-2.90;99.90;;;;;;5058057;28;20021;-65
2024/01/17 02:10:47;;;;;;;15.90;5.18;;;-3.10;99.90;;;;;;5057964;28;20039;-65
2024/01/17 02:13:13;;;;;;;20.98;5.93;;;-3.00;99.90;;;;;;5058006;28;20021;-65
2024/01/17 02:15:39;;;;;;;18.88;5.60;;;-3.00;99.90;;;;;;5058583;28;20167;-65
2024/01/17 02:18:05;;;;;;;13.90;5.00;;;-3.00;99.90;;;;;;5058789;28;20064;-65
2024/01/17 02:20:31;;;;;;;12.10;5.05;;;-2.90;99.90;;;;;;5057753;28;20056;-65
2024/01/17 02:22:56;;;;;;;15.57;5.25;;;-3.00;99.90;;;;;;5058022;28;20106;-65
2024/01/17 02:25:22;;;;;;;12.52;5.28;;;-3.00;99.90;;;;;;5058071;28;20013;-65
2024/01/17 02:27:47;;;;;;;20.83;5.95;;;-2.90;99.90;;;;;;5057333;28;20025;-65
2024/01/17 02:30:14;;;;;;;12.50;5.32;;;-3.00;99.90;;;;;;5057884;28;20061;-65
2024/01/17 02:32:42;;;;;;;12.73;5.45;;;-3.00;99.90;;;;;;5057802;28;20036;-65
2024/01/17 02:35:08;;;;;;;13.70;5.60;;;-3.10;99.90;;;;;;5057667;28;20024;-65
2024/01/17 02:37:33;;;;;;;13.35;5.03;;;-3.20;99.90;;;;;;5057399;28;20087;-65
2024/01/17 02:39:59;;;;;;;16.15;6.05;;;-3.10;99.90;;;;;;5058437;28;20058;-67
2024/01/17 02:42:24;;;;;;;19.38;4.65;;;-3.10;99.90;;;;;;5058085;28;20048;-67
2024/01/17 02:44:50;;;;;;;15.52;4.72;;;-3.10;99.90;;;;;;5058407;28;20024;-67
2024/01/17 02:47:16;;;;;;;7.43;4.15;;;-3.20;99.90;;;;;;5057330;28;20032;-67
2024/01/17 02:49:42;;;;;;;27.58;5.80;;;-3.20;99.90;;;;;;5057250;28;20021;-67
2024/01/17 02:52:07;;;;;;;10.30;4.57;;;-3.20;99.90;;;;;;5057529;28;20051;-67
2024/01/17 02:54:33;;;;;;;10.95;5.25;;;-3.00;99.90;;;;;;5057425;28;20212;-67
2024/01/17 02:56:58;;;;;;;17.17;5.32;;;-3.00;99.90;;;;;;5057120;28;20025;-67
2024/01/17 02:59:24;;;;;;;14.82;5.18;;;-3.20;99.90;;;;;;5057861;28;20032;-67
2024/01/17 03:01:50;;;;;;;9.32;4.72;;;-3.20;99.90;;;;;;5056831;28;20048;-67
2024/01/17 03:04:16;;;;;;;14.85;4.32;;;-3.20;99.90;;;;;;5057189;28;20013;-67
2024/01/17 03:06:43;;;;;;;7.43;4.38;;;-3.20;99.90;;;;;;5058213;28;20021;-67
2024/01/17 03:09:10;;;;;;;10.95;4.43;;;-3.30;99.90;;;;;;5056818;28;20040;-67
2024/01/17 03:11:36;;;;;;;19.05;4.85;;;-3.30;99.90;;;;;;5057074;28;20028;-67
2024/01/17 03:14:03;;;;;;;12.27;5.28;;;-3.40;99.90;;;;;;5057659;28;20025;-67
2024/01/17 03:16:28;;;;;;;14.70;5.07;;;-3.40;99.90;;;;;;5057944;28;20028;-67
2024/01/17 03:18:54;;;;;;;14.48;4.40;;;-3.30;99.90;;;;;;5057507;28;20021;-67
2024/01/17 03:21:19;;;;;;;12.82;4.60;;;-3.40;99.90;;;;;;5056437;28;20031;-67
2024/01/17 03:23:45;;;;;;;9.05;4.32;;;-3.40;99.90;;;;;;5057385;28;20094;-67
2024/01/17 03:26:10;;;;;;;9.00;4.53;;;-3.50;99.90;;;;;;5056445;28;20021;-67
2024/01/17 03:28:36;;;;;;;13.60;5.43;;;-3.50;99.90;;;;;;5057319;28;20025;-67
2024/01/17 03:31:02;;;;;;;16.63;5.57;;;-3.50;99.90;;;;;;5057506;28;20036;-67
2024/01/17 03:33:27;;;;;;;13.93;4.97;;;-3.40;99.90;;;;;;5057510;28;20032;-67
2024/01/17 03:35:53;;;;;;;14.02;5.15;;;-3.50;99.90;;;;;;5056483;28;20021;-67
2024/01/17 03:38:18;;;;;;;14.85;5.43;;;-3.50;99.90;;;;;;5057464;28;20025;-67
2024/01/17 03:40:44;;;;;;;17.38;4.97;;;-3.50;99.90;;;;;;5055498;28;20037;-67
2024/01/17 03:43:11;;;;;;;11.30;5.40;;;-3.30;99.90;;;;;;5056311;28;20058;-67
2024/01/17 03:45:36;;;;;;;17.88;5.75;;;-3.30;99.90;;;;;;5056624;28;20028;-67
2024/01/17 03:48:04;;;;;;;19.38;3.70;;;-3.40;99.90;;;;;;5057151;28;20025;-67
2024/01/17 03:50:30;;;;;;;9.07;4.60;;;-3.50;99.90;;;;;;5056812;28;20155;-67
2024/01/17 03:52:55;;;;;;;13.18;4.70;;;-3.50;99.90;;;;;;5057129;28;20060;-67
2024/01/17 03:55:21;;;;;;;13.02;5.25;;;-3.50;99.90;;;;;;5057299;28;20024;-67
2024/01/17 03:57:47;;;;;;;10.85;4.40;;;-3.50;99.90;;;;;;5057529;28;20088;-67
2024/01/17 04:00:14;;;;;;;13.45;4.78;;;-3.50;99.90;;;;;;5056959;28;20036;-67
2024/01/17 04:02:39;;;;;;;8.85;4.03;;;-3.50;99.90;;;;;;5056787;28;20025;-67
2024/01/17 04:05:05;;;;;;;14.48;4.50;;;-3.60;99.90;;;;;;5057019;28;20023;-67
2024/01/17 04:07:31;;;;;;;16.60;5.00;;;-3.60;99.90;;;;;;5057073;28;20032;-68
2024/01/17 04:09:56;;;;;;;6.63;4.22;;;-3.70;99.90;;;;;;5055781;28;20018;-67
2024/01/17 04:12:22;;;;;;;11.90;4.95;;;-3.60;99.90;;;;;;5056670;28;20029;-67
2024/01/17 04:14:47;;;;;;;12.13;4.35;;;-3.60;99.90;;;;;;5055928;28;20035;-67
2024/01/17 04:17:13;;;;;;;8.57;4.32;;;-3.50;99.90;;;;;;5056698;28;20107;-67
2024/01/17 04:19:40;;;;;;;12.15;4.75;;;-3.60;99.90;;;;;;5056022;28;20025;-67
2024/01/17 04:22:05;;;;;;;14.73;4.97;;;-3.70;99.90;;;;;;5056678;28;20051;-67
2024/01/17 04:24:31;;;;;;;16.80;5.75;;;-3.60;99.90;;;;;;5056030;28;20108;-67
2024/01/17 04:26:56;;;;;;;17.73;4.93;;;-3.50;99.90;;;;;;5055761;28;20071;-67
2024/01/17 04:29:23;;;;;;;9.75;4.70;;;-3.70;99.90;;;;;;5056468;28;20029;-67
2024/01/17 04:31:49;;;;;;;13.27;5.10;;;-3.70;99.90;;;;;;5055696;28;20047;-67
2024/01/17 04:34:15;;;;;;;13.52;5.15;;;-3.70;99.90;;;;;;5056743;28;20081;-67
2024/01/17 04:36:41;;;;;;;11.63;5.75;;;-3.60;99.90;;;;;;5056736;28;20108;-67
2024/01/17 04:39:08;;;;;;;16.25;5.63;;;-3.50;99.90;;;;;;5055883;28;20056;-68
2024/01/17 04:41:34;;;;;;;14.02;6.13;;;-3.40;99.90;;;;;;5055796;28;20037;-67
2024/01/17 04:44:00;;;;;;;16.02;5.93;;;-3.40;99.90;;;;;;5056445;28;20025;-67
2024/01/17 04:46:26;;;;;;;18.73;6.65;;;-3.30;99.90;;;;;;5056555;28;20021;-67
2024/01/17 04:48:51;;;;;;;21.60;6.50;;;-3.20;99.90;;;;;;5056827;28;20029;-67
2024/01/17 04:51:20;;;;;;;14.27;6.10;;;-3.40;99.90;;;;;;5056918;28;20086;-67
2024/01/17 04:53:46;;;;;;;16.90;6.10;;;-3.30;99.90;;;;;;5059549;28;20025;-67
2024/01/17 04:56:13;;;;;;;12.82;5.35;;;-3.30;99.90;;;;;;5060329;28;20017;-67
2024/01/17 04:58:39;;;;;;;14.10;6.07;;;-3.30;99.90;;;;;;5059256;28;20101;-67
2024/01/17 05:01:10;;;;;;;18.15;5.93;;;-3.30;99.90;;;;;;5059482;28;20037;-67
2024/01/17 05:03:37;;;;;;;18.80;5.95;;;-3.30;99.90;;;;;;5059194;28;20036;-67
2024/01/17 05:06:02;;;;;;;16.88;6.28;;;-3.30;99.90;;;;;;5060445;28;20037;-67
2024/01/17 05:08:29;;;;;;;11.45;5.22;;;-3.30;99.90;;;;;;5059378;28;20028;-67
2024/01/17 05:10:55;;;;;;;12.73;6.10;;;-3.30;99.90;;;;;;5059859;28;20036;-67
2024/01/17 05:13:20;;;;;;;14.35;6.70;;;-3.30;99.90;;;;;;5059569;28;20021;-67
2024/01/17 05:15:46;;;;;;;12.52;5.97;;;-3.30;99.90;;;;;;5059313;28;20044;-67
2024/01/17 05:18:12;;;;;;;15.20;5.68;;;-3.30;99.90;;;;;;5059394;28;20021;-67
2024/01/17 05:20:38;;;;;;;25.17;7.53;;;-3.30;99.90;;;;;;5059943;28;20052;-67
2024/01/17 05:23:04;;;;;;;17.80;6.18;;;-3.30;99.90;;;;;;5059605;28;20029;-68
2024/01/17 05:25:30;;;;;;;16.08;5.85;;;-3.30;99.90;;;;;;5058863;28;20025;-67
2024/01/17 05:27:55;;;;;;;21.25;6.60;;;-3.30;99.90;;;;;;5058796;28;20018;-67
2024/01/17 05:30:23;;;;;;;15.00;6.45;;;-3.40;99.90;;;;;;5059879;28;20024;-67
2024/01/17 05:32:49;;;;;;;14.85;6.07;;;-3.20;99.90;;;;;;5058830;28;20029;-67
2024/01/17 05:35:15;;;;;;;13.23;6.03;;;-3.30;99.90;;;;;;5058796;28;20029;-67
2024/01/17 05:37:41;;;;;;;15.40;6.80;;;-3.40;99.90;;;;;;5059568;28;20031;-67
2024/01/17 05:40:15;;;;;;;12.02;5.25;;;-3.30;99.90;;;;;;5059472;28;20037;-67
2024/01/17 05:42:43;;;;;;;16.65;6.03;;;-3.30;99.90;;;;;;5059440;28;20025;-67
2024/01/17 05:45:08;;;;;;;14.40;5.90;;;-3.30;99.90;;;;;;5058708;28;20017;-67
2024/01/17 05:47:35;;;;;;;24.10;6.93;;;-3.30;99.90;;;;;;5059966;28;20052;-67
2024/01/17 05:50:02;;;;;;;20.65;6.57;;;-3.30;99.90;;;;;;5058743;28;20025;-67
2024/01/17 05:52:28;;;;;;;13.35;6.22;;;-3.30;99.90;;;;;;5058279;28;20048;-67
2024/01/17 05:54:54;;;;;;;16.65;6.13;;;-3.30;99.90;;;;;;5059210;28;20025;-67
2024/01/17 05:57:19;;;;;;;17.33;6.15;;;-3.20;99.90;;;;;;5059722;28;20029;-67
2024/01/17 05:59:45;;;;;;;18.15;6.38;;;-3.10;99.90;;;;;;5058186;28;20025;-67
2024/01/17 06:02:10;;;;;;;11.35;5.82;;;-3.00;99.90;;;;;;5059161;28;20025;-67
2024/01/17 06:04:36;;;;;;;19.35;6.60;;;-3.00;99.90;;;;;;5057692;28;20024;-67
2024/01/17 06:07:01;;;;;;;12.98;5.57;;;-3.00;99.90;;;;;;5057910;28;20017;-67
2024/01/17 06:09:27;;;;;;;16.60;7.13;;;-3.20;99.90;;;;;;5058740;28;20025;-67
2024/01/17 06:11:53;;;;;;;13.27;5.65;;;-3.30;99.90;;;;;;5058860;28;20021;-67
2024/01/17 06:14:18;;;;;;;19.45;6.68;;;-3.30;99.90;;;;;;5058756;28;20036;-67
2024/01/17 06:16:44;;;;;;;13.82;5.97;;;-3.20;99.90;;;;;;5058201;28;20021;-67
2024/01/17 06:19:10;;;;;;;12.93;5.60;;;-3.30;99.90;;;;;;5057921;28;20024;-67
2024/01/17 06:21:36;;;;;;;10.45;5.38;;;-3.30;99.90;;;;;;5057715;28;20100;-67
2024/01/17 06:24:01;;;;;;;15.00;6.88;;;-3.30;99.90;;;;;;5058954;28;20029;-68
2024/01/17 06:26:27;;;;;;;11.82;6.07;;;-3.30;99.90;;;;;;5057671;28;20104;-67
2024/01/17 06:28:52;;;;;;;20.58;7.40;;;-3.20;99.90;;;;;;5058916;28;20097;-67
2024/01/17 06:31:22;;;;;;;13.65;6.63;;;-3.00;99.90;;;;;;5057625;28;20159;-67
2024/01/17 06:33:48;;;;;;;10.80;5.35;;;-3.00;99.90;;;;;;5057848;28;20021;-67
2024/01/17 06:36:14;;;;;;;13.50;6.00;;;-3.00;99.90;;;;;;5057952;28;20029;-67
2024/01/17 06:38:39;;;;;;;22.33;6.35;;;-3.00;99.90;;;;;;5057464;28;20100;-67
2024/01/17 06:41:05;;;;;;;20.05;6.65;;;-3.10;99.90;;;;;;5058264;28;20037;-67
2024/01/17 06:43:30;;;;;;;16.75;6.22;;;-3.10;99.90;;;;;;5058340;28;20088;-67
2024/01/17 06:45:56;;;;;;;16.45;5.60;;;-3.10;99.90;;;;;;5057335;28;20021;-67
2024/01/17 06:48:21;;;;;;;9.18;5.30;;;-3.10;99.90;;;;;;5058698;28;20092;-67
2024/01/17 06:50:47;;;;;;;13.82;5.80;;;-3.00;99.90;;;;;;5057182;28;20079;-67
2024/01/17 06:53:13;;;;;;;14.93;6.28;;;-2.90;99.90;;;;;;5058034;28;20021;-67
2024/01/17 06:55:39;;;;;;;15.40;6.55;;;-2.90;99.90;;;;;;5057235;28;20028;-67
2024/01/17 06:58:05;;;;;;;17.23;6.38;;;-2.80;99.90;;;;;;5058455;28;20104;-67
2024/01/17 07:00:30;;;;;;;21.05;7.28;;;-2.80;99.90;;;;;;5058105;28;20109;-67
2024/01/17 07:02:56;;;;;;;15.82;6.28;;;-2.80;99.90;;;;;;5057862;28;20021;-67
2024/01/17 07:05:22;;;;;;;32.80;6.80;;;-2.80;99.90;;;;;;5056816;28;20020;-67
2024/01/17 07:07:47;;;;;;;12.43;6.15;;;-2.80;99.90;;;;;;5057824;28;20017;-67
2024/01/17 07:10:13;;;;;;;17.38;6.85;;;-2.70;99.90;;;;;;5057881;28;20044;-67
2024/01/17 07:12:39;;;;;;;14.95;6.90;;;-2.60;99.90;;;;;;5057567;28;20032;-67
2024/01/17 07:15:05;;;;;;;14.88;6.43;;;-2.60;99.90;;;;;;5056847;28;20029;-67
2024/01/17 07:17:30;;;;;;;17.20;6.78;;;-2.60;99.90;;;;;;5057488;28;20051;-67
2024/01/17 07:19:56;;;;;;;19.73;7.00;;;-2.60;99.90;;;;;;5057639;28;20025;-67
2024/01/17 07:22:22;;;;;;;14.73;6.05;;;-2.60;99.90;;;;;;5057154;28;20036;-68
2024/01/17 07:24:47;;;;;;;15.40;6.43;;;-2.50;99.90;;;;;;5057421;28;20021;-67
2024/01/17 07:27:13;;;;;;;17.55;6.05;;;-2.50;99.90;;;;;;5056700;28;20098;-67
2024/01/17 07:29:39;;;;;;;14.48;6.63;;;-2.50;99.90;;;;;;5057842;28;20096;-67
2024/01/17 07:32:05;;;;;;;17.15;5.88;;;-2.70;99.90;;;;;;5057429;28;20017;-67
2024/01/17 07:34:30;;;;;;;16.48;7.32;;;-3.00;99.90;;;;;;5057598;28;20036;-67
2024/01/17 07:36:56;;;;;;;17.48;6.25;;;-3.20;99.90;;;;;;5057778;28;20017;-67
2024/01/17 07:39:22;;;;;;;17.25;6.72;;;-3.10;99.90;;;;;;5057274;28;20025;-67
2024/01/17 07:41:48;;;;;;;13.75;6.05;;;-3.00;99.90;;;;;;5057435;28;20025;-67
2024/01/17 07:44:14;;;;;;;19.95;6.47;;;-3.00;99.90;;;;;;5057352;28;20031;-67
2024/01/17 07:46:42;;;;;;;15.48;6.93;;;-3.10;99.90;;;;;;5056694;28;20048;-67
2024/01/17 07:49:07;;;;;;;17.48;6.93;;;-3.00;99.90;;;;;;5057101;28;20116;-67
2024/01/17 07:51:33;;;;;;;13.52;6.03;;;-2.80;99.90;;;;;;5057288;28;20024;-68
2024/01/17 07:53:58;;;;;;;18.10;6.57;;;-2.60;99.90;;;;;;5056469;28;20021;-67
2024/01/17 07:56:24;;;;;;;19.08;6.82;;;-2.50;99.90;;;;;;5057315;28;20037;-67
2024/01/17 07:58:50;;;;;;;21.80;7.15;;;-2.40;99.90;;;;;;5056099;28;20025;-67
2024/01/17 08:01:16;;;;;;;22.00;6.15;;;-2.40;99.90;;;;;;5056950;28;20032;-67
2024/01/17 08:03:42;;;;;;;14.05;6.47;;;-2.50;99.90;;;;;;5056285;28;20021;-67
2024/01/17 08:06:07;;;;;;;22.90;7.85;;;-2.70;99.90;;;;;;5056007;28;20021;-67
2024/01/17 08:08:33;;;;;;;22.30;8.40;;;-2.60;99.90;;;;;;5056289;28;20025;-67
2024/01/17 08:10:58;;;;;;;20.65;9.90;;;-2.40;99.90;;;;;;5056179;28;20021;-67
2024/01/17 08:13:24;;;;;;;26.38;8.23;;;-2.30;99.90;;;;;;5056164;28;20171;-67
2024/01/17 08:15:50;;;;;;;33.05;8.68;;;-2.20;99.90;;;;;;5055840;28;20056;-67
2024/01/17 08:18:16;;;;;;;22.38;8.10;;;-2.20;99.90;;;;;;5056868;28;20071;-67
2024/01/17 08:20:43;;;;;;;22.55;7.82;;;-2.30;99.90;;;;;;5055919;28;20036;-67
2024/01/17 08:23:08;;;;;;;21.98;6.97;;;-2.40;99.90;;;;;;5056562;28;20029;-67
2024/01/17 08:25:34;;;;;;;20.23;8.10;;;-2.50;99.90;;;;;;5057027;28;20036;-67
2024/01/17 08:28:00;;;;;;;19.73;7.50;;;-2.60;99.90;;;;;;5059210;28;20028;-67
2024/01/17 08:30:26;;;;;;;14.45;6.78;;;-2.60;99.90;;;;;;5060653;28;20021;-67
2024/01/17 08:32:53;;;;;;;19.38;8.07;;;-2.40;99.90;;;;;;5061325;28;20021;-67
2024/01/17 08:35:19;;;;;;;18.02;7.03;;;-2.40;99.90;;;;;;5059726;28;20032;-67
2024/01/17 08:37:45;;;;;;;18.33;8.20;;;-2.20;99.90;;;;;;5060601;28;20120;-67
2024/01/17 08:40:11;;;;;;;23.00;6.90;;;-2.00;99.90;;;;;;5060553;28;20134;-67
2024/01/17 08:42:37;;;;;;;17.13;6.50;;;-1.90;99.90;;;;;;5059409;28;20041;-67
2024/01/17 08:45:05;;;;;;;19.45;7.13;;;-1.90;99.90;;;;;;5060011;28;20032;-67
2024/01/17 08:47:31;;;;;;;13.77;6.63;;;-1.80;99.90;;;;;;5060488;28;20021;-67
2024/01/17 08:49:56;;;;;;;20.83;7.43;;;-1.70;99.90;;;;;;5060237;28;20017;-67
2024/01/17 08:52:22;;;;;;;13.05;6.05;;;-1.70;99.90;;;;;;5060382;28;20085;-66
2024/01/17 08:54:48;;;;;;;18.10;6.55;;;-1.80;99.90;;;;;;5059549;28;20025;-67
2024/01/17 08:57:14;;;;;;;15.80;7.43;;;-1.70;99.90;;;;;;5059478;28;20029;-67
2024/01/17 08:59:39;;;;;;;13.98;6.43;;;-1.60;99.90;;;;;;5060222;28;20108;-66
2024/01/17 09:02:05;;;;;;;14.38;6.28;;;-1.60;99.90;;;;;;5060058;28;20033;-66
2024/01/17 09:04:32;;;;;;;18.67;7.28;;;-1.60;99.90;;;;;;5060018;28;20071;-67
2024/01/17 09:06:57;;;;;;;11.90;6.53;;;-1.60;99.90;;;;;;5059097;28;20025;-67
2024/01/17 09:09:25;;;;;;;17.15;7.03;;;-1.60;99.90;;;;;;5059908;28;20025;-66
2024/01/17 09:11:53;;;;;;;17.25;6.65;;;-1.60;99.90;;;;;;5060148;28;20028;-66
2024/01/17 09:14:21;;;;;;;18.23;6.93;;;-1.50;99.90;;;;;;5058815;28;20021;-67
2024/01/17 09:16:52;;;;;;;17.20;7.15;;;-1.50;99.90;;;;;;5059951;28;20013;-67
2024/01/17 09:19:20;;;;;;;21.20;7.03;;;-1.40;99.90;;;;;;5059772;28;20028;-67
2024/01/17 09:21:46;;;;;;;17.73;6.97;;;-1.40;99.90;;;;;;5059953;28;20025;-67
2024/01/17 09:24:12;;;;;;;13.57;6.47;;;-1.30;99.90;;;;;;5059570;28;20029;-67
2024/01/17 09:26:38;;;;;;;15.75;6.75;;;-1.30;99.90;;;;;;5059719;28;20027;-66
2024/01/17 09:29:03;;;;;;;17.88;7.13;;;-1.20;99.90;;;;;;5059638;28;20025;-67
2024/01/17 09:31:29;;;;;;;21.73;7.80;;;-1.30;99.90;;;;;;5059674;28;20025;-67
2024/01/17 09:33:54;;;;;;;18.00;8.00;;;-1.20;99.90;;;;;;5059830;28;20025;-68
2024/01/17 09:36:20;;;;;;;17.00;6.20;;;-1.20;99.90;;;;;;5058837;28;20021;-68
2024/01/17 09:38:46;;;;;;;14.98;5.95;;;-1.10;99.90;;;;;;5058771;28;20033;-66
2024/01/17 09:41:11;;;;;;;20.52;6.70;;;-1.20;99.90;;;;;;5059893;28;20045;-66
2024/01/17 09:43:37;;;;;;;16.25;6.55;;;-1.10;99.90;;;;;;5058755;28;20115;-66
2024/01/17 09:46:04;;;;;;;18.05;6.75;;;-1.00;99.90;;;;;;5059356;28;20025;-66
2024/01/17 09:48:30;;;;;;;16.48;7.00;;;-0.90;99.90;;;;;;5059284;28;20041;-66
2024/01/17 09:50:57;;;;;;;21.08;7.22;;;-0.80;99.90;;;;;;5059607;28;20017;-65
2024/01/17 09:53:29;;;;;;;17.60;7.47;;;-0.80;99.90;;;;;;5059577;28;20091;-65
2024/01/17 09:56:00;;;;;;;18.60;6.97;;;-0.80;99.90;;;;;;5058359;28;20112;-65
2024/01/17 09:58:33;;;;;;;13.30;6.55;;;-0.80;99.90;;;;;;5058763;28;20024;-65
2024/01/17 10:01:01;;;;;;;20.42;7.43;;;-0.80;99.90;;;;;;5058044;28;20117;-65
2024/01/17 10:03:28;;;;;;;18.50;7.82;;;-0.80;99.90;;;;;;5058100;28;20025;-67
2024/01/17 10:05:56;;;;;;;26.60;8.50;;;-0.80;99.90;;;;;;5058148;28;20021;-65
2024/01/17 10:08:21;;;;;;;23.30;7.88;;;-0.70;99.90;;;;;;5058869;28;20027;-65
2024/01/17 10:10:47;;;;;;;15.63;7.10;;;-0.70;99.90;;;;;;5058966;28;20100;-65
2024/01/17 10:13:13;;;;;;;18.67;7.75;;;-0.80;99.90;;;;;;5058743;28;20033;-65
2024/01/17 10:15:42;;;;;;;20.77;7.90;;;-0.80;99.90;;;;;;5059093;28;20036;-65
2024/01/17 10:18:12;;;;;;;18.17;7.40;;;-0.70;99.90;;;;;;5057854;28;20032;-65
2024/01/17 10:20:38;;;;;;;20.50;7.15;;;-0.60;99.90;;;;;;5058960;28;20028;-65
2024/01/17 10:23:07;;;;;;;18.85;7.43;;;-0.60;99.90;;;;;;5057734;28;20025;-66
2024/01/17 10:25:40;;;;;;;31.23;9.10;;;-0.60;99.90;;;;;;5057738;28;20025;-65
2024/01/17 10:28:06;;;;;;;19.77;8.02;;;-0.50;99.90;;;;;;5058686;28;20021;-65
2024/01/17 10:30:32;;;;;;;16.33;7.90;;;-0.40;99.90;;;;;;5058423;28;20024;-65
2024/01/17 10:32:58;;;;;;;28.75;8.50;;;-0.40;99.90;;;;;;5058370;28;20025;-65
2024/01/17 10:35:24;;;;;;;14.02;7.70;;;-0.40;99.90;;;;;;5058730;28;20029;-65
2024/01/17 10:37:52;;;;;;;21.88;8.80;;;-0.50;99.90;;;;;;5058456;28;20087;-65
2024/01/17 10:40:18;;;;;;;21.65;9.25;;;-0.40;99.90;;;;;;5058176;28;20098;-65
2024/01/17 10:42:44;;;;;;;19.17;8.48;;;-0.40;99.90;;;;;;5058231;28;20029;-67
2024/01/17 10:45:23;;;;;;;19.08;8.13;;;-0.40;99.90;;;;;;5058194;28;20021;-66
2024/01/17 10:47:49;;;;;;;26.10;8.60;;;-0.60;99.90;;;;;;5057318;28;20021;-65
2024/01/17 10:50:17;;;;;;;21.85;8.63;;;-0.60;99.90;;;;;;5057779;28;20092;-65
2024/01/17 10:52:46;;;;;;;19.80;7.75;;;-0.70;99.90;;;;;;5057442;28;20036;-65
2024/01/17 10:55:17;;;;;;;19.52;8.45;;;-0.60;99.90;;;;;;5058182;28;20036;-65
2024/01/17 10:57:49;;;;;;;21.83;7.53;;;-0.50;99.90;;;;;;5058159;28;20048;-65
2024/01/17 11:00:17;;;;;;;23.00;8.80;;;-0.50;99.90;;;;;;5057303;28;20029;-65
2024/01/17 11:02:44;;;;;;;19.92;8.13;;;-0.40;99.90;;;;;;5058065;28;20055;-65
2024/01/17 11:05:11;;;;;;;19.38;8.02;;;-0.50;99.90;;;;;;5058154;28;20025;-65
2024/01/17 11:07:37;;;;;;;26.08;9.65;;;-0.30;99.90;;;;;;5057064;28;20032;-64
2024/01/17 11:10:05;;;;;;;25.75;10.18;;;-0.30;99.90;;;;;;5057790;28;20017;-65
2024/01/17 11:12:32;;;;;;;18.45;9.18;;;-0.20;99.90;;;;;;5057722;28;20111;-65
2024/01/17 11:15:00;;;;;;;20.70;8.90;;;-0.30;99.90;;;;;;5056853;28;20032;-65
2024/01/17 11:17:28;;;;;;;20.63;8.55;;;-0.30;99.90;;;;;;5057827;28;20036;-64
2024/01/17 11:19:55;;;;;;;21.73;8.05;;;-0.30;99.90;;;;;;5057700;28;20028;-64
2024/01/17 11:22:21;;;;;;;18.13;8.75;;;-0.30;99.90;;;;;;5057764;28;20032;-64
2024/01/17 11:25:16;;;;;;;21.83;8.27;;;-0.30;99.90;;;;;;5056635;28;20022;-64
2024/01/17 11:27:54;;;;;;;16.33;8.40;;;-0.30;99.90;;;;;;5057384;28;20013;-64
2024/01/17 11:30:36;;;;;;;21.75;9.02;;;-0.30;99.90;;;;;;5057747;28;20013;-64
2024/01/17 11:33:07;;;;;;;22.63;9.23;;;-0.40;99.90;;;;;;5058078;28;20059;-64
2024/01/17 11:35:49;;;;;;;20.83;8.40;;;-0.30;99.90;;;;;;5057577;28;20048;-64
2024/01/17 11:38:24;;;;;;;26.00;9.40;;;-0.40;99.90;;;;;;5056682;28;20052;-64
2024/01/17 11:41:07;;;;;;;21.73;8.50;;;-0.40;99.90;;;;;;5057108;28;20037;-66
2024/01/17 11:43:38;;;;;;;20.73;9.07;;;-0.50;99.90;;;;;;5057222;28;20024;-66
2024/01/17 11:46:07;;;;;;;20.40;9.35;;;-0.40;99.90;;;;;;5057381;28;20017;-64
2024/01/17 11:48:38;;;;;;;23.05;8.57;;;-0.40;99.90;;;;;;5057199;28;20028;-65
2024/01/17 11:51:14;;;;;;;21.50;9.05;;;-0.40;99.90;;;;;;5057015;28;20025;-65
2024/01/17 11:53:42;;;;;;;19.70;8.85;;;-0.40;99.90;;;;;;5057163;28;20029;-66
2024/01/17 11:56:10;;;;;;;19.52;10.13;;;-0.40;99.90;;;;;;5056912;28;20029;-66
2024/01/17 11:59:03;;;;;;;21.98;9.88;;;-0.50;99.90;;;;;;5057148;28;20035;-66
2024/01/17 12:01:31;;;;;;;19.17;9.18;;;-0.40;99.90;;;;;;5055230;28;20027;-66
2024/01/17 12:03:57;;;;;;;20.33;9.43;;;-0.40;99.90;;;;;;5057291;28;20036;-66
2024/01/17 12:06:23;;;;;;;23.42;9.38;;;-0.40;99.90;;;;;;5057149;28;20021;-65
2024/01/17 12:08:52;;;;;;;23.67;10.45;;;-0.40;99.90;;;;;;5057332;28;20021;-65
2024/01/17 12:11:17;;;;;;;27.85;10.23;;;-0.30;99.90;;;;;;5056082;28;20021;-65
2024/01/17 12:13:43;;;;;;;30.30;10.63;;;-0.30;99.90;;;;;;5056009;28;20028;-66
2024/01/17 12:16:10;;;;;;;25.30;10.70;;;-0.30;99.90;;;;;;5056820;28;20079;-67
2024/01/17 12:18:36;;;;;;;29.25;11.30;;;-0.40;99.90;;;;;;5057150;28;20112;-66
2024/01/17 12:21:04;;;;;;;27.40;11.00;;;-0.40;99.90;;;;;;5056697;28;20105;-66
2024/01/17 12:23:31;;;;;;;35.03;12.73;;;-0.40;99.90;;;;;;5056475;28;20051;-66
2024/01/17 12:25:57;;;;;;;26.75;11.15;;;-0.40;99.90;;;;;;5055759;28;20031;-66
2024/01/17 12:28:24;;;;;;;23.23;11.13;;;-0.40;99.90;;;;;;5056907;28;20095;-65
2024/01/17 12:30:59;;;;;;;23.05;10.13;;;-0.40;99.90;;;;;;5056886;28;20017;-66
2024/01/17 12:33:26;;;;;;;27.08;10.75;;;-0.30;99.90;;;;;;5056638;28;20029;-66